createdAt,value
2023-04-13T00:00:25.095Z,7.48
2023-04-13T00:01:25.516Z,7.42
2023-04-13T00:02:26.031Z,7.39
2023-04-13T00:03:26.289Z,7.36
2023-04-13T00:04:26.262Z,7.32
2023-04-13T00:05:26.762Z,7.31
2023-04-13T00:06:27.218Z,7.28
2023-04-13T00:07:27.650Z,7.40
2023-04-13T00:08:28.079Z,7.35
2023-04-13T00:09:28.506Z,7.32
2023-04-13T00:10:28.916Z,7.35
2023-04-13T00:11:29.358Z,7.32
2023-04-13T00:12:29.793Z,7.32
2023-04-13T00:13:30.209Z,7.36
2023-04-13T00:14:30.679Z,7.32
2023-04-13T00:15:31.097Z,7.38
2023-04-13T00:16:31.682Z,7.38
2023-04-13T00:17:31.683Z,7.36
2023-04-13T00:18:32.107Z,7.31
2023-04-13T00:19:32.523Z,7.32
2023-04-13T00:20:32.963Z,7.32
2023-04-13T00:21:33.380Z,7.33
2023-04-13T00:22:33.861Z,7.28
2023-04-13T00:23:34.360Z,7.31
2023-04-13T00:24:34.804Z,7.29
2023-04-13T00:25:35.246Z,7.29
2023-04-13T00:26:35.679Z,7.25
2023-04-13T00:27:36.120Z,7.28
2023-04-13T00:28:36.563Z,7.32
2023-04-13T00:29:37.014Z,7.31
2023-04-13T00:30:37.495Z,7.25
2023-04-13T00:31:37.975Z,7.31
2023-04-13T00:32:38.404Z,7.25
2023-04-13T00:33:38.854Z,7.32
2023-04-13T00:34:39.281Z,7.33
2023-04-13T00:35:39.715Z,7.24
2023-04-13T00:36:40.149Z,7.18
2023-04-13T00:37:40.585Z,7.21
2023-04-13T00:38:42.686Z,7.25
2023-04-13T00:39:41.106Z,7.23
2023-04-13T00:40:41.524Z,7.25
2023-04-13T00:41:41.944Z,7.21
2023-04-13T00:42:42.374Z,7.23
2023-04-13T00:43:42.791Z,7.21
2023-04-13T00:44:43.226Z,7.20
2023-04-13T00:45:43.663Z,7.18
2023-04-13T00:46:44.157Z,7.14
2023-04-13T00:47:44.646Z,7.15
2023-04-13T00:48:45.080Z,7.10
2023-04-13T00:49:45.534Z,7.07
2023-04-13T00:50:45.959Z,7.07
2023-04-13T00:51:46.385Z,7.05
2023-04-13T00:52:46.808Z,7.07
2023-04-13T00:53:47.238Z,6.99
2023-04-13T00:54:47.681Z,7.02
2023-04-13T00:55:48.136Z,7.00
2023-04-13T00:56:48.558Z,7.05
2023-04-13T00:57:49.005Z,6.97
2023-04-13T00:58:49.457Z,7.02
2023-04-13T00:59:49.902Z,6.97
2023-04-13T01:00:50.329Z,6.96
2023-04-13T01:01:51.094Z,6.96
2023-04-13T01:02:51.115Z,6.96
2023-04-13T01:03:51.623Z,6.99
2023-04-13T01:04:52.254Z,6.99
2023-04-13T01:05:52.172Z,7.03
2023-04-13T01:06:52.673Z,7.02
2023-04-13T01:07:53.106Z,7.00
2023-04-13T01:08:53.550Z,7.05
2023-04-13T01:09:53.976Z,6.99
2023-04-13T01:10:54.386Z,6.99
2023-04-13T01:11:54.832Z,7.00
2023-04-13T01:12:55.273Z,6.93
2023-04-13T01:13:55.706Z,7.00
2023-04-13T01:14:56.139Z,6.96
2023-04-13T01:15:56.603Z,6.95
2023-04-13T01:16:57.124Z,6.97
2023-04-13T01:17:57.627Z,7.02
2023-04-13T01:18:58.090Z,6.93
2023-04-13T01:19:58.514Z,6.89
2023-04-13T01:20:58.950Z,6.88
2023-04-13T01:21:59.386Z,6.87
2023-04-13T01:22:59.792Z,6.92
2023-04-13T01:24:00.551Z,6.87
2023-04-13T01:25:00.581Z,6.89
2023-04-13T01:26:01.020Z,6.82
2023-04-13T01:27:01.433Z,6.88
2023-04-13T01:28:01.856Z,6.87
2023-04-13T01:29:02.284Z,6.92
2023-04-13T01:30:02.715Z,6.92
2023-04-13T01:31:03.183Z,6.85
2023-04-13T01:32:03.639Z,7.00
2023-04-13T01:33:04.117Z,6.92
2023-04-13T01:34:04.593Z,6.87
2023-04-13T01:35:05.037Z,6.92
2023-04-13T01:36:05.470Z,6.99
2023-04-13T01:37:05.923Z,7.00
2023-04-13T01:38:06.350Z,7.03
2023-04-13T01:39:06.887Z,7.03
2023-04-13T01:40:07.356Z,7.05
2023-04-13T01:41:07.786Z,7.06
2023-04-13T01:42:08.206Z,7.10
2023-04-13T01:43:08.698Z,7.10
2023-04-13T01:44:09.150Z,7.07
2023-04-13T01:45:09.575Z,7.02
2023-04-13T01:46:10.100Z,6.99
2023-04-13T01:47:10.595Z,7.05
2023-04-13T01:48:11.053Z,7.02
2023-04-13T01:49:11.501Z,7.03
2023-04-13T01:50:11.970Z,7.05
2023-04-13T01:51:12.406Z,7.10
2023-04-13T01:52:12.847Z,7.02
2023-04-13T01:53:13.296Z,7.00
2023-04-13T01:54:13.773Z,7.03
2023-04-13T01:55:14.225Z,7.05
2023-04-13T01:56:14.672Z,7.05
2023-04-13T01:57:15.102Z,7.02
2023-04-13T01:58:15.553Z,6.99
2023-04-13T01:59:16.011Z,6.95
2023-04-13T02:00:16.473Z,7.00
2023-04-13T02:01:16.939Z,6.93
2023-04-13T02:02:17.533Z,6.95
2023-04-13T02:03:18.136Z,6.96
2023-04-13T02:04:18.844Z,6.97
2023-04-13T02:05:18.814Z,6.93
2023-04-13T02:06:19.291Z,6.88
2023-04-13T02:07:19.758Z,6.88
2023-04-13T02:08:20.219Z,6.87
2023-04-13T02:09:20.673Z,6.89
2023-04-13T02:10:21.123Z,6.88
2023-04-13T02:11:21.586Z,6.84
2023-04-13T02:12:22.040Z,6.81
2023-04-13T02:13:22.481Z,6.81
2023-04-13T02:14:22.943Z,6.78
2023-04-13T02:15:23.415Z,6.75
2023-04-13T02:16:23.903Z,6.74
2023-04-13T02:17:24.378Z,6.66
2023-04-13T02:18:24.831Z,6.59
2023-04-13T02:19:25.285Z,6.49
2023-04-13T02:20:25.738Z,6.59
2023-04-13T02:21:26.205Z,6.52
2023-04-13T02:22:26.666Z,6.56
2023-04-13T02:23:27.116Z,6.52
2023-04-13T02:24:27.606Z,6.33
2023-04-13T02:25:28.063Z,6.27
2023-04-13T02:26:28.522Z,6.28
2023-04-13T02:27:28.955Z,6.39
2023-04-13T02:28:29.387Z,6.46
2023-04-13T02:29:29.838Z,6.45
2023-04-13T02:30:30.277Z,6.52
2023-04-13T02:31:30.822Z,6.51
2023-04-13T02:32:31.330Z,6.48
2023-04-13T02:33:31.835Z,6.46
2023-04-13T02:34:32.309Z,6.49
2023-04-13T02:35:35.096Z,6.54
2023-04-13T02:36:33.045Z,6.56
2023-04-13T02:37:33.480Z,6.56
2023-04-13T02:38:33.928Z,6.54
2023-04-13T02:39:34.367Z,6.45
2023-04-13T02:40:34.817Z,6.12
2023-04-13T02:41:35.262Z,5.98
2023-04-13T02:42:35.702Z,5.99
2023-04-13T02:43:36.137Z,6.09
2023-04-13T02:44:36.562Z,6.08
2023-04-13T02:45:37.061Z,6.24
2023-04-13T02:46:37.536Z,6.30
2023-04-13T02:47:38.019Z,6.26
2023-04-13T02:48:38.459Z,6.08
2023-04-13T02:49:38.890Z,5.82
2023-04-13T02:50:39.312Z,5.89
2023-04-13T02:51:39.736Z,5.87
2023-04-13T02:52:40.269Z,5.87
2023-04-13T02:53:40.696Z,5.80
2023-04-13T02:54:41.142Z,5.71
2023-04-13T02:55:41.587Z,5.66
2023-04-13T02:56:42.014Z,5.68
2023-04-13T02:57:42.474Z,5.61
2023-04-13T02:58:42.913Z,5.69
2023-04-13T02:59:43.339Z,6.02
2023-04-13T03:00:43.780Z,6.12
2023-04-13T03:01:44.268Z,6.24
2023-04-13T03:02:44.888Z,6.22
2023-04-13T03:03:44.828Z,6.19
2023-04-13T03:04:45.286Z,6.19
2023-04-13T03:05:45.809Z,6.26
2023-04-13T03:06:46.252Z,6.30
2023-04-13T03:07:46.695Z,6.19
2023-04-13T03:08:47.137Z,6.28
2023-04-13T03:09:47.554Z,6.38
2023-04-13T03:10:47.994Z,6.46
2023-04-13T03:11:48.441Z,6.49
2023-04-13T03:12:48.870Z,6.44
2023-04-13T03:13:49.328Z,6.42
2023-04-13T03:14:49.759Z,6.46
2023-04-13T03:15:50.183Z,6.48
2023-04-13T03:16:50.700Z,6.41
2023-04-13T03:17:51.238Z,6.48
2023-04-13T03:18:51.784Z,6.56
2023-04-13T03:19:52.234Z,6.54
2023-04-13T03:20:52.665Z,6.56
2023-04-13T03:21:53.105Z,6.62
2023-04-13T03:22:53.600Z,6.52
2023-04-13T03:23:54.050Z,6.63
2023-04-13T03:24:54.492Z,6.66
2023-04-13T03:25:54.920Z,6.64
2023-04-13T03:26:55.356Z,6.64
2023-04-13T03:27:55.805Z,6.59
2023-04-13T03:28:56.263Z,6.45
2023-04-13T03:29:56.739Z,6.46
2023-04-13T03:30:57.221Z,6.49
2023-04-13T03:31:57.696Z,6.56
2023-04-13T03:32:58.203Z,6.59
2023-04-13T03:33:59.026Z,6.63
2023-04-13T03:34:59.033Z,6.69
2023-04-13T03:35:59.484Z,6.70
2023-04-13T03:36:59.921Z,6.75
2023-04-13T03:38:00.370Z,6.70
2023-04-13T03:39:00.802Z,6.66
2023-04-13T03:40:01.275Z,6.72
2023-04-13T03:41:01.726Z,6.75
2023-04-13T03:42:02.195Z,6.74
2023-04-13T03:43:02.660Z,6.66
2023-04-13T03:44:03.073Z,6.70
2023-04-13T03:45:03.480Z,6.67
2023-04-13T03:46:03.995Z,6.85
2023-04-13T03:47:04.483Z,6.87
2023-04-13T03:48:04.980Z,6.95
2023-04-13T03:49:05.436Z,6.89
2023-04-13T03:50:05.859Z,6.82
2023-04-13T03:51:06.289Z,6.70
2023-04-13T03:52:06.712Z,6.52
2023-04-13T03:53:07.133Z,6.28
2023-04-13T03:54:07.570Z,5.94
2023-04-13T03:55:08.042Z,5.54
2023-04-13T03:56:08.554Z,5.66
2023-04-13T03:57:09.006Z,5.62
2023-04-13T03:58:09.439Z,5.61
2023-04-13T03:59:09.870Z,5.66
2023-04-13T04:00:10.291Z,5.57
2023-04-13T04:01:10.718Z,5.61
2023-04-13T04:02:11.205Z,5.72
2023-04-13T04:03:11.693Z,5.69
2023-04-13T04:04:12.323Z,5.69
2023-04-13T04:05:12.404Z,5.79
2023-04-13T04:06:12.877Z,5.87
2023-04-13T04:07:13.411Z,5.87
2023-04-13T04:08:13.837Z,5.93
2023-04-13T04:09:14.285Z,5.90
2023-04-13T04:10:14.726Z,6.01
2023-04-13T04:11:15.156Z,6.08
2023-04-13T04:12:15.572Z,6.28
2023-04-13T04:13:15.991Z,6.27
2023-04-13T04:14:16.414Z,6.41
2023-04-13T04:15:16.825Z,6.39
2023-04-13T04:16:17.335Z,6.35
2023-04-13T04:17:17.804Z,6.19
2023-04-13T04:18:18.235Z,6.08
2023-04-13T04:19:18.662Z,5.83
2023-04-13T04:20:19.114Z,5.86
2023-04-13T04:21:19.551Z,5.83
2023-04-13T04:22:19.980Z,5.86
2023-04-13T04:23:20.430Z,5.86
2023-04-13T04:24:20.875Z,5.98
2023-04-13T04:25:21.309Z,6.05
2023-04-13T04:26:21.753Z,6.14
2023-04-13T04:27:22.194Z,6.20
2023-04-13T04:28:22.626Z,6.26
2023-04-13T04:29:23.062Z,6.24
2023-04-13T04:30:23.508Z,6.16
2023-04-13T04:31:23.973Z,6.11
2023-04-13T04:32:24.486Z,5.94
2023-04-13T04:33:24.978Z,6.02
2023-04-13T04:34:25.425Z,6.04
2023-04-13T04:35:25.876Z,5.97
2023-04-13T04:36:26.326Z,6.07
2023-04-13T04:37:26.781Z,6.19
2023-04-13T04:38:27.230Z,6.16
2023-04-13T04:39:27.646Z,6.16
2023-04-13T04:40:28.092Z,5.97
2023-04-13T04:41:28.553Z,5.90
2023-04-13T04:42:29.004Z,5.91
2023-04-13T04:43:29.463Z,5.87
2023-04-13T04:44:29.914Z,5.75
2023-04-13T04:45:30.393Z,5.84
2023-04-13T04:46:30.872Z,5.93
2023-04-13T04:47:31.341Z,5.89
2023-04-13T04:48:31.986Z,5.76
2023-04-13T04:49:32.448Z,5.64
2023-04-13T04:50:32.898Z,5.51
2023-04-13T04:51:33.330Z,5.50
2023-04-13T04:52:33.762Z,5.57
2023-04-13T04:53:34.211Z,5.65
2023-04-13T04:54:34.669Z,5.57
2023-04-13T04:55:35.130Z,5.71
2023-04-13T04:56:35.594Z,5.75
2023-04-13T04:57:36.037Z,5.89
2023-04-13T04:58:36.503Z,5.94
2023-04-13T04:59:36.977Z,5.94
2023-04-13T05:00:37.446Z,5.87
2023-04-13T05:01:37.969Z,5.86
2023-04-13T05:02:38.671Z,5.89
2023-04-13T05:03:38.643Z,5.93
2023-04-13T05:04:39.092Z,5.98
2023-04-13T05:05:39.631Z,5.99
2023-04-13T05:06:40.139Z,6.14
2023-04-13T05:07:40.615Z,6.14
2023-04-13T05:08:41.083Z,6.09
2023-04-13T05:09:41.533Z,6.12
2023-04-13T05:10:41.994Z,6.14
2023-04-13T05:11:42.462Z,6.14
2023-04-13T05:12:42.913Z,6.11
2023-04-13T05:13:43.388Z,6.17
2023-04-13T05:14:43.859Z,6.14
2023-04-13T05:15:44.338Z,6.20
2023-04-13T05:16:44.790Z,6.24
2023-04-13T05:17:45.266Z,6.28
2023-04-13T05:18:45.736Z,6.39
2023-04-13T05:19:46.187Z,6.45
2023-04-13T05:20:46.635Z,6.52
2023-04-13T05:21:47.089Z,6.49
2023-04-13T05:22:47.551Z,6.54
2023-04-13T05:23:48.011Z,6.56
2023-04-13T05:24:48.480Z,6.56
2023-04-13T05:25:48.941Z,6.60
2023-04-13T05:26:49.410Z,6.64
2023-04-13T05:27:49.864Z,6.67
2023-04-13T05:28:50.311Z,6.70
2023-04-13T05:29:50.764Z,6.75
2023-04-13T05:30:51.214Z,6.72
2023-04-13T05:31:51.701Z,6.66
2023-04-13T05:32:52.235Z,6.78
2023-04-13T05:33:52.763Z,6.72
2023-04-13T05:34:53.231Z,6.70
2023-04-13T05:35:53.681Z,6.77
2023-04-13T05:36:54.147Z,6.77
2023-04-13T05:37:56.981Z,6.78
2023-04-13T05:38:55.261Z,6.89
2023-04-13T05:39:55.698Z,6.87
2023-04-13T05:40:56.148Z,6.84
2023-04-13T05:41:56.603Z,6.84
2023-04-13T05:42:57.070Z,6.85
2023-04-13T05:43:57.517Z,6.88
2023-04-13T05:44:57.964Z,6.85
2023-04-13T05:45:58.474Z,6.82
2023-04-13T05:46:58.972Z,6.81
2023-04-13T05:47:59.457Z,6.79
2023-04-13T05:49:00.296Z,6.88
2023-04-13T05:50:00.404Z,6.92
2023-04-13T05:51:00.911Z,6.96
2023-04-13T05:52:01.433Z,7.03
2023-04-13T05:53:01.889Z,7.13
2023-04-13T05:54:02.353Z,7.18
2023-04-13T05:55:02.824Z,7.20
2023-04-13T05:56:03.309Z,7.21
2023-04-13T05:57:03.778Z,7.21
2023-04-13T05:58:04.248Z,7.14
2023-04-13T05:59:04.730Z,7.20
2023-04-13T06:00:05.188Z,7.28
2023-04-13T06:01:05.660Z,7.32
2023-04-13T06:02:06.212Z,7.39
2023-04-13T06:03:06.960Z,7.45
2023-04-13T06:04:07.119Z,7.38
2023-04-13T06:05:07.124Z,7.32
2023-04-13T06:06:07.630Z,7.29
2023-04-13T06:07:08.103Z,7.33
2023-04-13T06:08:08.586Z,7.33
2023-04-13T06:09:09.069Z,7.28
2023-04-13T06:10:09.560Z,7.28
2023-04-13T06:11:10.050Z,7.33
2023-04-13T06:12:10.526Z,7.39
2023-04-13T06:13:10.993Z,7.33
2023-04-13T06:14:11.450Z,7.31
2023-04-13T06:15:11.922Z,7.33
2023-04-13T06:16:12.430Z,7.33
2023-04-13T06:17:12.952Z,7.25
2023-04-13T06:18:13.440Z,7.38
2023-04-13T06:19:13.887Z,7.39
2023-04-13T06:20:14.349Z,7.40
2023-04-13T06:21:14.817Z,7.31
2023-04-13T06:22:15.291Z,7.33
2023-04-13T06:23:15.776Z,7.40
2023-04-13T06:24:16.266Z,7.40
2023-04-13T06:25:16.824Z,7.42
2023-04-13T06:26:17.353Z,7.53
2023-04-13T06:27:17.856Z,7.53
2023-04-13T06:28:18.348Z,7.47
2023-04-13T06:29:18.838Z,7.45
2023-04-13T06:30:19.347Z,7.48
2023-04-13T06:31:19.867Z,7.47
2023-04-13T06:32:20.427Z,7.51
2023-04-13T06:33:20.925Z,7.56
2023-04-13T06:34:21.417Z,7.54
2023-04-13T06:35:21.898Z,7.61
2023-04-13T06:36:22.420Z,7.67
2023-04-13T06:37:22.913Z,7.61
2023-04-13T06:38:23.461Z,7.56
2023-04-13T06:39:24.382Z,7.53
2023-04-13T06:40:24.475Z,7.58
2023-04-13T06:41:24.944Z,7.70
2023-04-13T06:42:25.422Z,7.67
2023-04-13T06:43:29.516Z,7.82
2023-04-13T06:44:26.250Z,7.75
2023-04-13T06:45:26.761Z,7.79
2023-04-13T06:46:27.297Z,7.93
2023-04-13T06:47:27.814Z,7.80
2023-04-13T06:48:28.345Z,7.91
2023-04-13T06:49:28.850Z,7.85
2023-04-13T06:50:29.328Z,7.79
2023-04-13T06:51:29.814Z,7.77
2023-04-13T06:52:30.308Z,7.77
2023-04-13T06:53:30.795Z,7.75
2023-04-13T06:54:31.320Z,7.85
2023-04-13T06:55:31.811Z,7.91
2023-04-13T06:56:32.288Z,7.85
2023-04-13T06:57:32.780Z,7.80
2023-04-13T06:58:33.325Z,7.98
2023-04-13T06:59:33.833Z,7.95
2023-04-13T07:00:34.385Z,7.90
2023-04-13T07:01:35.039Z,7.91
2023-04-13T07:02:35.158Z,7.97
2023-04-13T07:03:35.329Z,7.95
2023-04-13T07:04:35.419Z,7.82
2023-04-13T07:05:35.929Z,7.83
2023-04-13T07:06:36.428Z,7.90
2023-04-13T07:07:36.929Z,7.82
2023-04-13T07:08:37.407Z,7.90
2023-04-13T07:09:37.875Z,7.90
2023-04-13T07:10:38.349Z,7.79
2023-04-13T07:11:38.857Z,7.70
2023-04-13T07:12:39.373Z,7.66
2023-04-13T07:13:39.890Z,7.63
2023-04-13T07:14:40.358Z,7.63
2023-04-13T07:15:40.881Z,7.73
2023-04-13T07:16:41.382Z,7.79
2023-04-13T07:17:41.902Z,7.76
2023-04-13T07:18:42.429Z,7.75
2023-04-13T07:19:42.923Z,7.76
2023-04-13T07:20:43.406Z,7.82
2023-04-13T07:21:43.897Z,7.91
2023-04-13T07:22:44.388Z,7.88
2023-04-13T07:23:44.880Z,7.91
2023-04-13T07:24:45.364Z,7.90
2023-04-13T07:25:45.885Z,7.83
2023-04-13T07:26:46.449Z,7.90
2023-04-13T07:27:46.953Z,7.88
2023-04-13T07:28:47.431Z,7.88
2023-04-13T07:29:47.927Z,7.93
2023-04-13T07:30:48.413Z,7.90
2023-04-13T07:31:48.932Z,7.85
2023-04-13T07:32:49.471Z,7.83
2023-04-13T07:33:49.954Z,7.85
2023-04-13T07:34:50.462Z,7.91
2023-04-13T07:35:50.961Z,7.94
2023-04-13T07:36:51.454Z,7.97
2023-04-13T07:37:53.300Z,8.03
2023-04-13T07:38:52.399Z,8.00
2023-04-13T07:39:52.882Z,8.16
2023-04-13T07:40:53.364Z,8.15
2023-04-13T07:41:53.866Z,8.06
2023-04-13T07:42:54.354Z,8.01
2023-04-13T07:43:54.843Z,8.05
2023-04-13T07:44:55.335Z,8.01
2023-04-13T07:45:55.829Z,8.08
2023-04-13T07:46:56.378Z,8.09
2023-04-13T07:47:56.948Z,8.12
2023-04-13T07:48:57.472Z,8.12
2023-04-13T07:49:58.012Z,8.10
2023-04-13T07:50:58.553Z,8.16
2023-04-13T07:51:59.039Z,8.24
2023-04-13T07:52:59.519Z,8.26
2023-04-13T07:53:59.992Z,8.20
2023-04-13T07:55:00.453Z,8.12
2023-04-13T07:56:00.926Z,8.10
2023-04-13T07:57:01.433Z,8.13
2023-04-13T07:58:01.971Z,8.16
2023-04-13T07:59:02.439Z,8.15
2023-04-13T08:00:02.911Z,8.15
2023-04-13T08:01:03.391Z,8.13
2023-04-13T08:02:03.894Z,8.16
2023-04-13T08:03:04.594Z,8.24
2023-04-13T08:04:04.705Z,8.16
2023-04-13T08:05:05.004Z,8.18
2023-04-13T08:06:05.045Z,8.27
2023-04-13T08:07:05.529Z,8.23
2023-04-13T08:08:06.014Z,8.12
2023-04-13T08:09:06.478Z,8.13
2023-04-13T08:10:06.955Z,8.18
2023-04-13T08:11:07.428Z,8.19
2023-04-13T08:12:07.885Z,8.23
2023-04-13T08:13:08.337Z,8.23
2023-04-13T08:14:08.819Z,8.19
2023-04-13T08:15:09.281Z,8.19
2023-04-13T08:16:09.746Z,8.30
2023-04-13T08:17:10.221Z,8.27
2023-04-13T08:18:10.711Z,8.30
2023-04-13T08:19:11.180Z,8.44
2023-04-13T08:20:11.658Z,8.37
2023-04-13T08:21:12.131Z,8.41
2023-04-13T08:22:12.589Z,8.36
2023-04-13T08:23:13.062Z,8.36
2023-04-13T08:24:13.538Z,8.33
2023-04-13T08:25:14.002Z,8.30
2023-04-13T08:26:14.487Z,8.30
2023-04-13T08:27:14.964Z,8.44
2023-04-13T08:28:15.449Z,8.48
2023-04-13T08:29:15.952Z,8.45
2023-04-13T08:30:16.434Z,8.52
2023-04-13T08:31:16.894Z,8.55
2023-04-13T08:32:17.368Z,8.56
2023-04-13T08:33:17.857Z,8.51
2023-04-13T08:34:18.312Z,8.60
2023-04-13T08:35:18.776Z,8.63
2023-04-13T08:36:19.236Z,8.52
2023-04-13T08:37:19.688Z,8.52
2023-04-13T08:38:20.161Z,8.51
2023-04-13T08:39:20.614Z,8.48
2023-04-13T08:40:21.064Z,8.51
2023-04-13T08:41:21.523Z,8.52
2023-04-13T08:42:23.591Z,8.51
2023-04-13T08:43:22.430Z,8.61
2023-04-13T08:44:22.921Z,8.67
2023-04-13T08:45:23.388Z,8.61
2023-04-13T08:46:23.904Z,8.64
2023-04-13T08:47:24.389Z,8.69
2023-04-13T08:48:24.860Z,8.66
2023-04-13T08:49:25.372Z,8.69
2023-04-13T08:50:25.857Z,8.87
2023-04-13T08:51:26.323Z,9.04
2023-04-13T08:52:26.798Z,9.22
2023-04-13T08:53:27.280Z,9.21
2023-04-13T08:54:27.726Z,9.18
2023-04-13T08:55:28.184Z,9.11
2023-04-13T08:56:42.082Z,9.08
2023-04-13T08:57:28.824Z,9.04
2023-04-13T08:58:29.336Z,8.74
2023-04-13T08:59:29.809Z,8.81
2023-04-13T09:00:30.302Z,8.85
2023-04-13T09:01:30.822Z,8.76
2023-04-13T09:02:31.489Z,8.82
2023-04-13T09:03:31.560Z,8.82
2023-04-13T09:04:32.424Z,8.85
2023-04-13T09:05:32.465Z,8.89
2023-04-13T09:06:32.961Z,8.87
2023-04-13T09:07:33.435Z,8.85
2023-04-13T09:08:33.880Z,8.85
2023-04-13T09:09:34.342Z,8.79
2023-04-13T09:10:34.881Z,8.78
2023-04-13T09:11:35.367Z,8.78
2023-04-13T09:12:35.844Z,8.87
2023-04-13T09:13:36.326Z,8.88
2023-04-13T09:14:36.811Z,8.81
2023-04-13T09:15:37.292Z,8.87
2023-04-13T09:16:37.941Z,8.84
2023-04-13T09:17:37.900Z,8.94
2023-04-13T09:18:38.381Z,9.02
2023-04-13T09:19:38.974Z,9.00
2023-04-13T09:20:39.692Z,9.11
2023-04-13T09:21:39.573Z,9.06
2023-04-13T09:22:40.011Z,9.06
2023-04-13T09:23:40.474Z,9.10
2023-04-13T09:24:40.948Z,9.19
2023-04-13T09:25:41.403Z,9.22
2023-04-13T09:26:41.887Z,9.19
2023-04-13T09:27:42.380Z,8.92
2023-04-13T09:28:42.832Z,8.91
2023-04-13T09:29:43.289Z,8.85
2023-04-13T09:30:43.783Z,8.71
2023-04-13T09:31:45.661Z,8.76
2023-04-13T09:32:44.735Z,8.55
2023-04-13T09:33:45.256Z,8.26
2023-04-13T09:34:45.714Z,8.19
2023-04-13T09:35:46.192Z,8.23
2023-04-13T09:37:46.847Z,8.23
2023-04-13T09:38:47.312Z,8.24
2023-04-13T09:39:47.780Z,8.24
2023-04-13T09:40:48.264Z,8.10
2023-04-13T09:41:48.735Z,7.98
2023-04-13T09:42:49.192Z,7.90
2023-04-13T09:43:49.664Z,7.75
2023-04-13T09:44:51.144Z,7.51
2023-04-13T09:45:51.440Z,7.45
2023-04-13T09:46:51.758Z,7.45
2023-04-13T09:47:51.110Z,7.40
2023-04-13T09:48:51.587Z,7.42
2023-04-13T09:49:52.134Z,7.39
2023-04-13T09:50:52.600Z,7.48
2023-04-13T09:51:53.085Z,7.56
2023-04-13T09:52:53.538Z,7.67
2023-04-13T09:53:54.009Z,7.79
2023-04-13T09:54:54.487Z,7.85
2023-04-13T09:55:54.956Z,7.88
2023-04-13T09:56:55.417Z,7.95
2023-04-13T09:57:55.906Z,7.93
2023-04-13T09:58:56.394Z,7.98
2023-04-13T09:59:56.889Z,8.09
2023-04-13T10:00:57.351Z,8.31
2023-04-13T10:01:57.883Z,8.60
2023-04-13T10:02:58.499Z,8.85
2023-04-13T10:03:59.184Z,9.13
2023-04-13T10:04:59.183Z,9.43
2023-04-13T10:06:00.663Z,9.39
2023-04-13T10:07:00.124Z,9.04
2023-04-13T10:08:00.590Z,9.11
2023-04-13T10:09:01.080Z,9.28
2023-04-13T10:10:01.710Z,8.95
2023-04-13T10:11:01.636Z,8.81
2023-04-13T10:12:02.136Z,8.94
2023-04-13T10:13:02.599Z,9.23
2023-04-13T10:14:03.064Z,9.56
2023-04-13T10:15:03.516Z,9.69
2023-04-13T10:16:04.378Z,9.79
2023-04-13T10:17:04.376Z,10.01
2023-04-13T10:18:04.635Z,10.12
2023-04-13T10:19:04.667Z,10.15
2023-04-13T10:20:05.197Z,9.89
2023-04-13T10:21:05.643Z,9.82
2023-04-13T10:22:08.924Z,9.86
2023-04-13T10:23:06.275Z,9.73
2023-04-13T10:24:11.240Z,9.94
2023-04-13T10:25:06.865Z,10.12
2023-04-13T10:26:07.407Z,10.20
2023-04-13T10:27:07.921Z,9.92
2023-04-13T10:28:08.402Z,9.65
2023-04-13T10:29:08.856Z,9.83
2023-04-13T10:30:09.329Z,9.72
2023-04-13T10:31:09.785Z,9.65
2023-04-13T10:32:10.308Z,9.56
2023-04-13T10:33:10.782Z,9.58
2023-04-13T10:34:11.232Z,9.74
2023-04-13T10:35:11.728Z,9.99
2023-04-13T10:36:12.300Z,10.05
2023-04-13T10:37:12.788Z,9.84
2023-04-13T10:38:13.265Z,9.74
2023-04-13T10:39:13.741Z,9.73
2023-04-13T10:40:14.238Z,9.68
2023-04-13T10:41:14.735Z,9.77
2023-04-13T10:42:17.204Z,9.73
2023-04-13T10:43:15.535Z,9.76
2023-04-13T10:44:15.992Z,9.73
2023-04-13T10:45:16.453Z,9.79
2023-04-13T10:46:16.969Z,9.64
2023-04-13T10:47:17.459Z,9.64
2023-04-13T10:48:17.917Z,9.79
2023-04-13T10:49:18.395Z,9.74
2023-04-13T10:50:18.997Z,9.79
2023-04-13T10:51:19.451Z,9.54
2023-04-13T10:52:19.949Z,9.62
2023-04-13T10:53:20.432Z,9.69
2023-04-13T10:54:20.897Z,9.62
2023-04-13T10:55:21.357Z,9.68
2023-04-13T10:56:21.832Z,9.69
2023-04-13T10:57:22.331Z,9.56
2023-04-13T10:58:22.861Z,9.47
2023-04-13T10:59:23.314Z,9.55
2023-04-13T11:00:31.857Z,9.43
2023-04-13T11:01:23.928Z,9.47
2023-04-13T11:02:24.529Z,9.55
2023-04-13T11:03:25.114Z,9.54
2023-04-13T11:04:25.881Z,9.29
2023-04-13T11:05:25.865Z,9.23
2023-04-13T11:06:26.336Z,9.31
2023-04-13T11:07:26.982Z,9.29
2023-04-13T11:08:26.951Z,9.31
2023-04-13T11:09:27.407Z,9.44
2023-04-13T11:10:27.879Z,9.44
2023-04-13T11:11:28.355Z,9.40
2023-04-13T11:12:28.820Z,9.29
2023-04-13T11:13:29.934Z,9.23
2023-04-13T11:14:29.980Z,9.19
2023-04-13T11:15:30.496Z,9.14
2023-04-13T11:16:31.078Z,9.06
2023-04-13T11:17:31.595Z,8.87
2023-04-13T11:18:32.134Z,8.74
2023-04-13T11:19:32.633Z,8.67
2023-04-13T11:20:33.089Z,8.61
2023-04-13T11:21:33.565Z,8.51
2023-04-13T11:22:34.044Z,8.56
2023-04-13T11:23:34.508Z,8.60
2023-04-13T11:24:35.043Z,8.61
2023-04-13T11:25:35.537Z,8.58
2023-04-13T11:26:35.991Z,8.56
2023-04-13T11:27:36.452Z,8.49
2023-04-13T11:28:36.907Z,8.55
2023-04-13T11:29:37.374Z,8.46
2023-04-13T11:30:37.849Z,8.60
2023-04-13T11:31:38.383Z,8.70
2023-04-13T11:32:38.926Z,8.74
2023-04-13T11:33:40.586Z,8.76
2023-04-13T11:34:39.607Z,8.85
2023-04-13T11:35:40.079Z,8.87
2023-04-13T11:36:40.629Z,8.88
2023-04-13T11:37:41.170Z,8.85
2023-04-13T11:38:41.733Z,9.13
2023-04-13T11:39:42.225Z,9.28
2023-04-13T11:40:42.683Z,9.68
2023-04-13T11:41:43.150Z,9.83
2023-04-13T11:42:43.652Z,10.07
2023-04-13T11:43:44.199Z,10.19
2023-04-13T11:44:44.717Z,10.46
2023-04-13T11:45:45.297Z,10.35
2023-04-13T11:46:45.448Z,10.44
2023-04-13T11:47:45.547Z,10.26
2023-04-13T11:48:46.103Z,10.25
2023-04-13T11:49:46.633Z,10.38
2023-04-13T11:50:47.152Z,10.51
2023-04-13T11:51:47.666Z,10.56
2023-04-13T11:52:48.222Z,10.48
2023-04-13T11:53:48.795Z,10.51
2023-04-13T11:54:49.334Z,10.28
2023-04-13T11:55:53.743Z,10.51
2023-04-13T11:56:50.329Z,10.93
2023-04-13T11:57:50.861Z,11.19
2023-04-13T11:58:51.407Z,11.35
2023-04-13T11:59:51.998Z,11.84
2023-04-13T12:00:52.570Z,11.94
2023-04-13T12:02:02.204Z,11.57
2023-04-13T12:03:01.913Z,11.22
2023-04-13T12:04:04.769Z,11.27
2023-04-13T12:04:53.958Z,11.25
2023-04-13T12:05:54.235Z,10.97
2023-04-13T12:06:55.049Z,10.86
2023-04-13T12:07:54.945Z,10.69
2023-04-13T12:08:57.756Z,10.44
2023-04-13T12:09:58.196Z,10.28
2023-04-13T12:12:20.461Z,10.60
2023-04-13T12:12:57.096Z,10.69
2023-04-13T12:14:07.229Z,10.61
2023-04-13T12:15:09.759Z,10.46
2023-04-13T12:16:08.377Z,10.41
2023-04-13T12:17:04.546Z,10.35
2023-04-13T12:18:00.491Z,10.17
2023-04-13T12:18:57.820Z,10.19
2023-04-13T12:19:58.014Z,10.26
2023-04-13T12:20:58.175Z,10.33
2023-04-13T12:22:00.400Z,10.19
2023-04-13T12:23:59.819Z,9.89
2023-04-13T12:24:59.575Z,9.84
2023-04-13T12:26:00.078Z,9.89
2023-04-13T12:27:17.686Z,9.94
2023-04-13T12:28:00.672Z,9.97
2023-04-13T12:29:01.177Z,9.87
2023-04-13T12:30:01.744Z,9.95
2023-04-13T12:31:02.376Z,10.01
2023-04-13T12:32:02.988Z,10.10
2023-04-13T12:33:03.610Z,10.13
2023-04-13T12:34:04.144Z,9.95
2023-04-13T12:35:04.618Z,9.79
2023-04-13T12:36:05.070Z,9.92
2023-04-13T12:37:05.555Z,9.82
2023-04-13T12:38:06.022Z,9.74
2023-04-13T12:39:06.534Z,9.91
2023-04-13T12:40:07.068Z,10.10
2023-04-13T12:41:07.601Z,10.17
2023-04-13T12:42:08.109Z,9.92
2023-04-13T12:43:08.575Z,9.92
2023-04-13T12:44:09.071Z,9.77
2023-04-13T12:45:09.537Z,9.95
2023-04-13T12:46:10.304Z,10.19
2023-04-13T12:47:10.334Z,10.15
2023-04-13T12:48:10.903Z,10.05
2023-04-13T12:49:11.471Z,10.12
2023-04-13T12:50:12.028Z,10.07
2023-04-13T12:51:12.535Z,9.84
2023-04-13T12:52:13.010Z,9.89
2023-04-13T12:53:13.492Z,9.77
2023-04-13T12:54:13.999Z,9.68
2023-04-13T12:55:14.469Z,9.56
2023-04-13T12:56:14.949Z,9.56
2023-04-13T12:57:15.471Z,9.48
2023-04-13T12:58:15.996Z,9.34
2023-04-13T12:59:16.482Z,9.28
2023-04-13T13:00:16.947Z,9.28
2023-04-13T13:01:17.468Z,9.25
2023-04-13T13:02:18.043Z,9.22
2023-04-13T13:03:18.557Z,9.13
2023-04-13T13:04:19.070Z,9.06
2023-04-13T13:05:19.577Z,9.18
2023-04-13T13:06:20.061Z,9.26
2023-04-13T13:07:20.579Z,9.04
2023-04-13T13:08:21.032Z,9.02
2023-04-13T13:09:21.695Z,9.11
2023-04-13T13:10:29.520Z,8.88
2023-04-13T13:11:22.365Z,8.84
2023-04-13T13:12:22.863Z,8.89
2023-04-13T13:13:23.330Z,9.03
2023-04-13T13:14:23.806Z,9.00
2023-04-13T13:15:24.264Z,8.81
2023-04-13T13:16:24.796Z,8.73
2023-04-13T13:17:25.294Z,8.74
2023-04-13T13:18:35.183Z,8.89
2023-04-13T13:19:25.927Z,8.87
2023-04-13T13:20:26.404Z,8.82
2023-04-13T13:21:26.887Z,8.78
2023-04-13T13:22:27.347Z,8.55
2023-04-13T13:23:27.843Z,8.56
2023-04-13T13:24:28.326Z,8.73
2023-04-13T13:25:28.808Z,8.82